Latest Weather Observations for Pallamana

IDS60901

Issued at 4:11 pm CST Thursday 3 September 2015 (issued every 10 minutes, with the page automatically refreshed every 10 minutes)

About weather observations | Map of Adelaide area stations | Latest observations for Adelaide area | Other Formats
Station Details ID: 024584 Name: PALLAMANA AERODROME Lat: -35.06 Lon: 139.23 Height: 45.0 m
Data from the previous 72 hours. | See also: Recent months at Pallamana
Date/Time
CST
Tmp

°C
App
Tmp
°C
Dew
Point
°C
Rel
Hum
%
Delta-T

°C
Wind Press
QNH
hPa
Press
MSL
hPa
Rain
since
9 am
mm
Dir
 
Spd
km/h
Gust
km/h
Spd
kts
Gust
kts
03/04:00pm 13.1 8.3 10.2 82 1.5 SSW 26 37 14 20 1022.7 1022.7 -
03/03:30pm 13.7 8.7 10.8 83 1.5 SSW 28 39 15 21 1022.3 1022.3 -
03/03:00pm 13.8 8.4 10.9 83 1.5 SSW 30 39 16 21 1021.9 1021.9 -
03/02:30pm 14.4 9.6 11.8 84 1.4 SSW 28 39 15 21 1021.5 1021.5 -
03/02:00pm 13.7 8.3 11.0 84 1.4 SSW 30 43 16 23 1021.2 1021.2 -
03/01:56pm 13.6 8.2 10.9 84 1.4 SSW 30 43 16 23 1021.2 1021.2 -
03/01:31pm 13.4 9.4 11.7 89 0.9 SSW 24 33 13 18 1021.1 1021.1 -
03/01:30pm 13.2 9.2 11.7 91 0.8 SSW 24 33 13 18 1021.2 1021.2 -
03/01:09pm 12.7 9.0 11.4 92 0.7 SSW 22 33 12 18 1021.2 1021.2 -
03/01:00pm 12.7 - 11.8 94 0.5 - - - - - 1021.2 1021.2 -
03/12:42pm 12.6 9.5 11.7 94 0.5 S 19 24 10 13 1021.4 1021.4 -
03/11:30am 14.1 8.3 9.6 74 2.3 SSW 30 39 16 21 1020.9 1020.9 0.0
03/11:00am 14.5 9.7 11.7 83 1.5 SSW 28 37 15 20 - - 0.0
03/10:43am 14.3 9.7 11.1 81 1.7 SSW 26 33 14 18 - - 0.0
03/10:30am 14.4 10.3 11.4 82 1.6 SSW 24 35 13 19 1020.5 1020.5 0.0
03/10:23am 14.6 11.0 11.8 83 1.5 S 22 32 12 17 1020.5 1020.5 0.0
03/10:00am 13.1 9.2 10.8 86 1.2 SSW 22 32 12 17 1020.2 1020.2 0.0
03/09:30am 12.5 7.5 11.0 90 0.8 SSW 28 41 15 22 1020.0 1020.0 0.0
03/09:02am 12.1 7.1 10.9 92 0.6 SSW 28 37 15 20 1019.5 1019.5 0.0
03/09:00am 12.1 7.1 10.8 92 0.7 SSW 28 37 15 20 1019.4 1019.4 6.2
03/08:49am 12.1 7.5 10.9 92 0.6 SSW 26 32 14 17 1019.2 1019.2 6.2
03/08:48am 12.1 7.4 10.8 92 0.7 SSW 26 32 14 17 1019.2 1019.2 6.2
03/08:35am 12.0 7.3 10.8 92 0.6 SSW 26 33 14 18 1018.9 1018.9 6.2
03/08:30am 12.0 7.3 10.6 91 0.7 SSW 26 33 14 18 1018.7 1018.7 6.2
03/08:00am 12.0 6.5 10.6 91 0.7 SSW 30 39 16 21 1017.8 1017.8 6.2
03/07:30am 11.7 6.2 10.5 92 0.6 SSW 30 43 16 23 1016.9 1016.9 6.2
03/07:13am 11.3 6.1 10.3 94 0.5 SSW 28 39 15 21 1016.7 1016.7 6.2
03/07:06am 11.2 6.4 10.4 95 0.4 SSW 26 35 14 19 1016.6 1016.6 6.2
03/07:00am 11.2 6.4 10.4 95 0.4 SSW 26 35 14 19 1016.5 1016.5 6.2
03/06:35am 11.5 7.1 10.5 94 0.5 SW 24 33 13 18 1016.0 1016.0 5.4
03/06:30am 11.5 6.0 10.5 94 0.5 SW 30 39 16 21 1015.8 1015.8 4.6
03/06:08am 11.6 6.1 10.4 92 0.6 SW 30 37 16 20 1015.2 1015.2 3.8
03/06:00am 11.7 6.1 10.3 91 0.7 SW 30 37 16 20 1015.0 1015.0 3.8
03/05:37am 11.3 6.8 10.1 92 0.6 WSW 24 32 13 17 1014.6 1014.6 3.8
03/05:31am 11.2 7.5 10.0 92 0.6 SW 20 28 11 15 1014.5 1014.5 3.8
03/05:30am 11.1 7.3 9.9 92 0.6 SW 20 28 11 15 1014.5 1014.5 3.8
03/05:26am 11.1 7.9 9.9 92 0.6 SW 17 24 9 13 1014.4 1014.4 3.8
03/05:00am 11.0 6.8 9.6 91 0.7 WSW 22 33 12 18 1013.9 1013.9 3.8
03/04:53am 11.0 7.1 9.4 90 0.8 WSW 20 33 11 18 1013.7 1013.7 3.8
03/04:30am 10.8 6.9 9.6 92 0.6 WSW 20 26 11 14 1013.3 1013.3 3.8
03/04:00am 10.7 6.8 9.3 91 0.7 WSW 20 26 11 14 1012.9 1012.9 3.8
03/03:30am 10.5 6.5 9.1 91 0.7 WSW 20 26 11 14 1012.6 1012.6 3.8
03/03:00am 10.1 6.7 9.1 93 0.5 SW 17 22 9 12 1012.1 1012.1 3.8
03/02:30am 9.9 6.0 8.7 92 0.6 SW 19 22 10 12 1011.9 1011.9 3.8
03/02:00am 10.2 5.8 9.0 92 0.6 SW 22 28 12 15 1012.0 1012.0 3.8
03/01:30am 10.8 5.8 9.6 92 0.6 SW 26 32 14 17 1011.6 1011.6 3.8
03/01:00am 10.0 5.6 9.0 93 0.5 WSW 22 28 12 15 1011.0 1011.1 3.8
03/12:30am 8.8 4.7 8.0 95 0.4 WSW 19 20 10 11 1010.3 1010.3 3.6
03/12:00am 9.0 6.1 8.2 95 0.4 WSW 13 17 7 9 1009.8 1009.8 3.6
 
Date/Time
CST
Tmp

°C
App
Tmp
°C
Dew
Point
°C
Rel
Hum
%
Delta-T

°C
Wind Press
QNH
hPa
Press
MSL
hPa
Rain
since
9 am
mm
Dir
 
Spd
km/h
Gust
km/h
Spd
kts
Gust
kts
02/11:30pm 10.0 6.0 9.2 95 0.4 SW 20 24 11 13 1009.7 1009.7 3.6
02/11:00pm 9.9 6.4 8.7 92 0.6 SW 17 19 9 10 1009.7 1009.7 3.6
02/10:33pm 9.9 5.5 8.9 93 0.5 SSW 22 28 12 15 1009.2 1009.2 3.6
02/10:30pm 9.9 5.5 8.9 93 0.5 SSW 22 30 12 16 1009.1 1009.1 3.6
02/10:00pm 10.0 5.7 9.2 95 0.4 SSW 22 28 12 15 1008.7 1008.7 3.6
02/09:56pm 10.1 6.2 9.3 95 0.4 SW 20 28 11 15 1008.6 1008.6 3.6
02/09:30pm 9.8 6.4 9.0 95 0.4 SW 17 20 9 11 1007.9 1007.9 3.6
02/09:00pm 9.5 6.4 8.7 95 0.4 SSW 15 19 8 10 1006.8 1006.8 3.6
02/08:37pm 9.3 6.2 8.7 96 0.3 S 15 20 8 11 1006.2 1006.2 3.6
02/08:30pm 9.6 6.5 8.8 95 0.4 S 15 19 8 10 1006.1 1006.1 3.6
02/08:00pm 10.3 6.6 9.5 95 0.4 S 19 24 10 13 1005.2 1005.2 3.6
02/07:30pm 10.7 7.0 10.1 96 0.3 SSE 20 26 11 14 1004.6 1004.6 3.6
02/07:18pm 10.9 7.4 10.1 95 0.4 SSE 19 24 10 13 1004.3 1004.3 3.6
02/07:07pm 10.8 7.6 10.0 95 0.4 SSE 17 22 9 12 1004.2 1004.2 3.6
02/07:00pm 10.9 8.1 10.1 95 0.4 SSE 15 20 8 11 1004.1 1004.1 3.6
02/06:51pm 11.0 8.6 10.0 93 0.5 SE 13 19 7 10 1003.9 1003.9 3.4
02/06:30pm 11.0 8.2 10.0 93 0.5 SSE 15 19 8 10 1003.5 1003.5 3.2
02/06:00pm 11.0 8.6 10.0 93 0.5 SE 13 17 7 9 1002.9 1002.9 3.2
02/05:30pm 11.2 8.8 10.0 92 0.6 ESE 13 17 7 9 1002.3 1002.3 3.0
02/05:00pm 11.5 9.9 10.1 91 0.7 ESE 9 11 5 6 1002.1 1002.1 2.6
02/04:30pm 11.8 10.1 9.8 87 1.0 NE 9 11 5 6 1002.0 1002.0 2.2
02/04:00pm 12.1 9.5 9.3 83 1.4 N 13 19 7 10 1001.9 1001.9 1.4
02/03:30pm 12.6 10.0 9.3 80 1.7 N 13 17 7 9 1001.8 1001.8 1.2
02/03:00pm 12.5 8.4 8.7 77 1.9 N 20 28 11 15 1001.8 1001.8 1.2
02/02:30pm 12.7 8.9 9.2 79 1.8 N 19 24 10 13 1001.8 1001.8 1.2
02/02:00pm 12.3 8.5 9.1 81 1.6 NNW 19 28 10 15 1002.0 1002.0 1.2
02/01:30pm 12.6 9.6 9.3 80 1.7 NNW 15 19 8 10 1002.2 1002.2 0.8
02/01:00pm 11.9 8.8 8.7 81 1.6 NW 15 17 8 9 1002.5 1002.5 0.6
02/12:56pm 11.9 8.8 8.7 81 1.6 NW 15 22 8 12 1002.6 1002.6 0.6
02/12:42pm 11.6 6.5 7.7 77 1.9 WNW 24 33 13 18 1002.9 1002.9 0.4
02/12:30pm 14.4 9.8 6.4 58 3.9 NNW 20 28 11 15 1003.1 1003.1 0.0
02/12:00pm 15.5 9.2 5.5 51 4.8 N 28 37 15 20 1003.4 1003.4 0.0
02/11:30am 15.5 9.9 7.3 58 4.1 N 26 33 14 18 1004.2 1004.2 0.0
02/11:00am 15.7 9.4 7.5 58 4.1 N 30 39 16 21 1004.6 1004.6 0.0
02/10:30am 13.8 7.9 7.5 66 3.1 N 28 35 15 19 1005.0 1005.0 0.0
02/10:00am 13.4 8.1 8.4 72 2.5 N 26 33 14 18 1005.5 1005.5 0.0
02/09:30am 11.7 7.2 8.5 81 1.6 N 22 33 12 18 1005.8 1005.8 0.0
02/09:00am 10.7 6.3 9.1 90 0.8 NNE 22 30 12 16 1006.0 1006.0 2.8
02/08:30am 10.3 6.5 9.1 92 0.6 NNE 19 26 10 14 1005.9 1005.9 2.8
02/08:00am 10.0 6.5 8.8 92 0.6 NNE 17 22 9 12 1005.9 1005.9 2.8
02/07:30am 9.5 6.3 8.5 93 0.5 N 15 19 8 10 1005.5 1005.5 2.8
02/07:00am 9.5 6.3 8.3 92 0.6 N 15 17 8 9 1005.6 1005.6 2.8
02/06:30am 9.7 6.1 8.5 92 0.6 N 17 20 9 11 1005.6 1005.6 2.8
02/06:00am 9.8 5.3 8.6 92 0.6 N 22 28 12 15 1005.8 1005.8 2.8
02/05:30am 9.7 6.6 8.7 93 0.5 NNE 15 20 8 11 1005.7 1005.7 2.8
02/05:00am 9.7 5.8 8.7 93 0.5 NNE 19 24 10 13 1006.1 1006.1 2.8
02/04:30am 9.6 6.1 8.6 93 0.5 NE 17 20 9 11 1006.0 1006.0 2.8
02/04:00am 9.8 7.3 8.2 90 0.8 N 11 15 6 8 1006.5 1006.5 1.4
02/03:30am 9.8 7.3 8.4 91 0.7 N 11 13 6 7 1006.6 1006.6 1.2
02/03:00am 9.7 6.1 8.3 91 0.7 NNE 17 20 9 11 1006.5 1006.5 1.2
02/02:30am 10.1 6.1 8.3 88 0.9 NNE 19 24 10 13 1007.2 1007.2 1.2
02/02:00am 10.3 6.7 8.3 87 1.0 NNE 17 20 9 11 1007.6 1007.6 1.2
02/01:30am 10.7 6.1 8.3 85 1.2 N 22 26 12 14 1008.1 1008.1 1.0
02/01:00am 10.6 6.2 7.3 80 1.6 N 20 28 11 15 1008.4 1008.4 0.6
02/12:30am 13.0 7.4 3.7 53 4.2 N 22 30 12 16 1008.3 1008.3 0.2
02/12:00am 13.0 8.0 3.7 53 4.2 N 19 24 10 13 1008.2 1008.2 0.2
 
Date/Time
CST
Tmp

°C
App
Tmp
°C
Dew
Point
°C
Rel
Hum
%
Delta-T

°C
Wind Press
QNH
hPa
Press
MSL
hPa
Rain
since
9 am
mm
Dir
 
Spd
km/h
Gust
km/h
Spd
kts
Gust
kts
01/11:30pm 13.1 7.1 3.6 52 4.3 N 24 32 13 17 1008.3 1008.3 0.2
01/11:00pm 13.4 8.3 0.7 42 5.4 N 17 22 9 12 1008.4 1008.4 0.0
01/10:30pm 13.1 7.5 0.2 41 5.4 N 19 22 10 12 1008.4 1008.4 0.0
01/10:00pm 12.5 7.4 0.6 44 5.0 NNW 17 20 9 11 1008.3 1008.3 0.0
01/09:30pm 12.4 7.6 0.1 43 5.1 NNW 15 17 8 9 1008.5 1008.5 0.0
01/09:00pm 13.9 8.7 -0.2 38 5.9 NNE 17 22 9 12 1008.5 1008.5 0.0
01/08:30pm 14.7 9.5 0.1 37 6.2 N 17 20 9 11 1008.6 1008.6 0.0
01/08:00pm 14.4 9.4 1.6 42 5.6 NNE 17 20 9 11 1008.5 1008.5 0.0
01/07:30pm 14.1 11.2 4.6 52 4.4 NE 9 11 5 6 1008.3 1008.3 0.0
01/07:00pm 15.2 10.9 3.4 45 5.4 NNE 15 17 8 9 1008.3 1008.3 0.0
01/06:30pm 15.1 12.9 6.2 55 4.3 NNW 7 11 4 6 1008.4 1008.4 0.0
01/06:00pm 15.3 12.4 6.5 55 4.3 N 11 13 6 7 1008.5 1008.5 0.0
01/05:30pm 16.8 13.5 6.2 49 5.2 N 13 15 7 8 1008.6 1008.6 0.0
01/05:00pm 17.9 13.5 4.8 42 6.3 NNW 17 20 9 11 1008.5 1008.5 0.0
01/04:30pm 18.7 14.2 4.0 37 7.0 N 17 22 9 12 1008.7 1008.7 0.0
01/04:00pm 18.8 14.0 4.7 39 6.8 N 19 26 10 14 1008.8 1008.8 0.0
01/03:30pm 19.5 17.6 6.6 43 6.5 NNW 6 9 3 5 1009.0 1009.0 0.0
01/03:00pm 19.7 17.1 6.3 41 6.7 NNW 9 13 5 7 1009.4 1009.4 0.0
01/02:30pm 19.8 16.7 5.7 39 7.0 N 11 15 6 8 1009.7 1009.7 0.0
01/02:00pm 18.8 15.4 6.1 43 6.3 NNE 13 17 7 9 1010.2 1010.2 0.0
01/01:30pm 18.8 15.4 5.8 42 6.4 NNE 13 17 7 9 1010.5 1010.5 0.0
01/01:00pm 17.1 12.8 5.3 45 5.7 NNE 17 20 9 11 1011.3 1011.3 0.0
01/12:30pm 17.5 13.5 4.7 42 6.1 NE 15 20 8 11 1011.8 1011.8 0.0
01/12:00pm 15.8 11.8 4.8 48 5.2 NNE 15 20 8 11 1012.5 1012.5 0.0
01/11:30am 15.2 10.8 5.0 50 4.8 N 17 20 9 11 1013.0 1013.0 0.0
01/11:00am 14.2 10.4 5.8 57 4.0 NNE 15 20 8 11 1013.4 1013.4 0.0
01/10:30am 11.3 8.4 6.7 73 2.2 NNW 11 13 6 7 1013.9 1013.9 0.0
01/10:00am 9.5 6.0 5.3 75 1.9 N 13 17 7 9 1014.3 1014.3 0.0
01/09:30am 8.4 5.2 5.0 79 1.5 N 11 13 6 7 1014.4 1014.4 0.0
01/09:00am 7.0 4.5 3.5 78 1.5 N 6 9 3 5 1014.8 1014.8 0.0
01/08:30am 6.5 3.0 3.4 80 1.3 NNE 11 13 6 7 1014.9 1014.9 0.0
01/08:00am 6.4 3.2 3.3 80 1.3 N 9 13 5 7 1014.9 1014.9 0.0
01/07:30am 5.8 2.1 2.6 80 1.3 N 11 13 6 7 1014.6 1014.6 0.0
01/07:00am 5.2 1.1 2.5 83 1.1 NNW 13 17 7 9 1014.4 1014.4 0.0
01/06:30am 4.4 0.3 2.2 86 0.9 NNW 13 15 7 8 1013.8 1013.8 0.0
01/06:00am 4.2 0.1 2.2 87 0.8 NNW 13 15 7 8 1014.1 1014.1 0.0
01/05:30am 3.8 0.0 1.8 87 0.8 NNW 11 13 6 7 1014.1 1014.1 0.0
01/05:00am 3.5 0.1 1.7 88 0.7 NNW 9 13 5 7 1014.2 1014.2 0.0
01/04:30am 4.0 -0.1 2.0 87 0.8 NNW 13 15 7 8 1014.3 1014.3 0.0
01/04:00am 2.7 -0.8 1.4 91 0.5 NNW 9 11 5 6 1014.5 1014.5 0.0
01/03:30am 2.1 -0.9 1.0 92 0.4 N 6 7 3 4 1014.6 1014.6 0.0
01/03:00am 2.0 -1.2 0.9 92 0.4 N 7 9 4 5 1015.1 1015.1 0.0
01/02:30am 1.1 -2.3 -0.3 90 0.5 NW 7 9 4 5 1015.5 1015.5 0.0
01/02:00am 1.5 -1.8 -0.1 89 0.6 NNW 7 9 4 5 1015.7 1015.7 0.0
01/01:30am 2.6 -0.9 1.3 91 0.5 NW 9 13 5 7 1016.2 1016.2 0.0
01/01:00am 2.0 -0.3 0.4 89 0.6 NW 2 7 1 4 1016.3 1016.3 0.0
01/12:30am 3.6 1.8 1.5 86 0.8 CALM 0 0 0 0 1016.5 1016.5 0.0
01/12:00am 3.8 2.0 1.5 85 0.9 CALM 0 0 0 0 1016.7 1016.7 0.0
 
Date/Time
CST
Tmp

°C
App
Tmp
°C
Dew
Point
°C
Rel
Hum
%
Delta-T

°C
Wind Press
QNH
hPa
Press
MSL
hPa
Rain
since
9 am
mm
Dir
 
Spd
km/h
Gust
km/h
Spd
kts
Gust
kts
31/11:30pm 2.6 0.6 0.2 84 0.9 CALM 0 0 0 0 1017.1 1017.1 0.0
31/11:00pm 3.5 1.7 0.9 83 1.0 CALM 0 0 0 0 1017.3 1017.3 0.0
31/10:30pm 4.9 3.4 3.2 89 0.7 CALM 0 0 0 0 1017.8 1017.8 0.0
31/10:00pm 4.6 3.0 2.6 87 0.8 CALM 0 0 0 0 1018.1 1018.1 0.0
31/09:30pm 3.5 1.7 1.4 86 0.8 CALM 0 4 0 2 1018.1 1018.1 0.0
31/09:00pm 6.4 3.3 3.6 82 1.2 W 9 13 5 7 1018.2 1018.2 0.0
31/08:30pm 6.0 4.5 2.9 80 1.3 CALM 0 2 0 1 1018.0 1018.0 0.0
31/08:00pm 7.1 3.8 2.2 71 2.0 WSW 9 11 5 6 1018.1 1018.1 0.0
31/07:30pm 8.9 6.6 2.8 65 2.6 SSW 4 7 2 4 1017.8 1017.8 0.0
31/07:00pm 10.6 8.0 3.3 60 3.2 S 6 7 3 4 1017.5 1017.5 0.0
31/06:30pm 11.2 8.5 3.8 60 3.3 SSE 7 9 4 5 1017.4 1017.4 0.0
31/06:00pm 12.2 9.2 4.2 58 3.6 S 9 13 5 7 1017.3 1017.3 0.0
31/05:30pm 14.3 11.2 5.4 55 4.2 SSW 11 15 6 8 1017.3 1017.3 0.0
31/05:00pm 16.7 12.9 4.1 43 5.9 S 13 19 7 10 1017.2 1017.2 0.0
31/04:30pm 19.4 16.8 3.2 34 7.6 WSW 6 9 3 5 1017.2 1017.2 0.0

Latest Capital City Observations: Canberra | Sydney | Melbourne | Brisbane | Adelaide | Perth | Hobart | Darwin

Other Formats:

Comma delimited format used in spreadsheet applications
http://www.bom.gov.au/fwo/IDS60901/IDS60901.95818.axf

JavaScript Object Notation format (JSON) in row-major order
http://www.bom.gov.au/fwo/IDS60901/IDS60901.95818.json